Terminal Aerodrome Forecast
Issued by NWS

Home | Current Version | Previous Version | Text Only | Print | Product List | Glossary Off
Versions: 1 2 3 4 5 6 7 8 9 10 11 12 13 14 15 16

359
FTUS42 KMHX 142341
TAFOAJ
TAF
KOAJ 142341Z 1500/1524 00000KT P6SM BKN020
     FM150200 00000KT P6SM BKN015
     FM150600 00000KT 4SM BR SCT003 BKN009
     FM150900 00000KT 3SM BR SCT003 BKN007
     FM151300 00000KT P6SM SCT007
     FM151500 VRB03KT P6SM SCT040
      AMD LTD TO CLD VIS AND WIND=

USA.gov is the U.S. government's official web portal to all federal, state and local government web resources and services.